createdAt,value
2022-10-17T00:00:54.450Z,14.83
2022-10-17T00:03:42.445Z,14.82
2022-10-17T00:06:29.694Z,14.81
2022-10-17T00:09:16.806Z,14.67
2022-10-17T00:12:05.138Z,14.74
2022-10-17T00:14:52.846Z,14.73
2022-10-17T00:17:42.147Z,14.75
2022-10-17T00:20:30.407Z,14.83
2022-10-17T00:23:18.635Z,14.80
2022-10-17T00:26:07.203Z,14.74
2022-10-17T00:28:55.354Z,14.72
2022-10-17T00:31:43.220Z,14.77
2022-10-17T00:34:32.533Z,14.78
2022-10-17T00:37:20.393Z,14.79
2022-10-17T00:40:09.667Z,14.84
2022-10-17T00:42:56.787Z,14.72
2022-10-17T00:45:44.167Z,14.69
2022-10-17T00:48:33.030Z,14.66
2022-10-17T00:51:26.185Z,14.67
2022-10-17T00:54:16.174Z,14.71
2022-10-17T00:57:04.727Z,14.68
2022-10-17T00:59:57.134Z,14.53
2022-10-17T01:02:45.128Z,14.48
2022-10-17T01:05:32.529Z,14.52
2022-10-17T01:08:21.273Z,14.54
2022-10-17T01:11:21.978Z,14.65
2022-10-17T01:14:16.527Z,14.54
2022-10-17T01:17:13.159Z,14.59
2022-10-17T01:20:28.707Z,14.56
2022-10-17T01:23:50.479Z,14.64
2022-10-17T01:27:00.416Z,14.66
2022-10-17T01:30:17.055Z,14.72
2022-10-17T01:33:12.119Z,14.70
2022-10-17T01:36:05.774Z,14.64
2022-10-17T01:39:02.256Z,14.65
2022-10-17T01:41:57.987Z,14.73
2022-10-17T01:44:50.506Z,14.62
2022-10-17T01:47:38.286Z,14.56
2022-10-17T01:50:30.822Z,14.59
2022-10-17T01:53:23.225Z,14.57
2022-10-17T01:56:15.516Z,14.55
2022-10-17T01:59:08.451Z,14.58
2022-10-17T02:01:59.375Z,14.56
2022-10-17T02:04:48.931Z,14.65
2022-10-17T02:07:37.686Z,14.59
2022-10-17T02:10:36.756Z,14.51
2022-10-17T02:13:33.184Z,14.44
2022-10-17T02:16:34.300Z,14.55
2022-10-17T02:19:41.127Z,14.44
2022-10-17T02:22:39.028Z,14.41
2022-10-17T02:25:37.145Z,14.47
2022-10-17T02:28:31.239Z,14.55
2022-10-17T02:31:23.794Z,14.45
2022-10-17T02:34:18.203Z,14.49
2022-10-17T02:37:09.567Z,14.50
2022-10-17T02:39:59.491Z,14.45
2022-10-17T02:42:48.706Z,14.43
2022-10-17T02:45:38.432Z,14.47
2022-10-17T02:48:32.338Z,14.42
2022-10-17T02:51:29.481Z,14.39
2022-10-17T02:54:23.136Z,14.35
2022-10-17T02:57:17.576Z,14.41
2022-10-17T03:00:10.205Z,14.51
2022-10-17T03:02:57.956Z,14.46
2022-10-17T03:05:45.739Z,14.48
2022-10-17T03:08:33.213Z,14.44
2022-10-17T03:11:20.997Z,14.39
2022-10-17T03:14:08.577Z,14.42
2022-10-17T03:16:57.710Z,14.49
2022-10-17T03:19:46.697Z,14.40
2022-10-17T03:22:35.585Z,14.49
2022-10-17T03:25:24.816Z,14.44
2022-10-17T03:28:13.257Z,14.51
2022-10-17T03:31:00.570Z,14.49
2022-10-17T03:33:49.957Z,14.57
2022-10-17T03:36:37.366Z,14.50
2022-10-17T03:39:24.825Z,14.46
2022-10-17T03:42:12.533Z,14.57
2022-10-17T03:45:00.113Z,14.56
2022-10-17T03:47:48.147Z,14.43
2022-10-17T03:50:37.589Z,14.46
2022-10-17T03:53:25.101Z,14.54
2022-10-17T03:56:15.093Z,14.51
2022-10-17T03:59:03.364Z,14.59
2022-10-17T04:01:53.847Z,14.55
2022-10-17T04:04:42.493Z,14.60
2022-10-17T04:07:31.375Z,14.64
2022-10-17T04:10:19.307Z,14.60
2022-10-17T04:13:08.330Z,14.50
2022-10-17T04:15:56.407Z,14.59
2022-10-17T04:18:44.130Z,14.57
2022-10-17T04:21:32.681Z,14.43
2022-10-17T04:24:26.712Z,14.36
2022-10-17T04:27:34.376Z,14.48
2022-10-17T04:30:22.082Z,14.40
2022-10-17T04:33:09.379Z,14.40
2022-10-17T04:35:58.199Z,14.41
2022-10-17T04:38:46.115Z,14.45
2022-10-17T04:41:35.576Z,14.54
2022-10-17T04:44:23.149Z,14.57
2022-10-17T04:47:12.432Z,14.62
2022-10-17T04:50:00.046Z,14.57
2022-10-17T04:52:47.546Z,14.58
2022-10-17T04:55:39.507Z,14.58
2022-10-17T04:58:30.219Z,14.70
2022-10-17T05:01:19.789Z,14.63
2022-10-17T05:04:12.042Z,14.57
2022-10-17T05:06:59.502Z,14.68
2022-10-17T05:10:22.239Z,14.64
2022-10-17T05:13:12.923Z,14.69
2022-10-17T05:16:03.006Z,14.59
2022-10-17T05:18:52.958Z,14.53
2022-10-17T05:21:41.265Z,14.55
2022-10-17T05:24:28.433Z,14.65
2022-10-17T05:27:15.483Z,14.59
2022-10-17T05:30:03.125Z,14.60
2022-10-17T05:32:56.251Z,14.63
2022-10-17T05:35:43.879Z,14.64
2022-10-17T05:38:31.423Z,14.65
2022-10-17T05:41:20.111Z,14.67
2022-10-17T05:44:08.026Z,14.82
2022-10-17T05:47:00.964Z,14.74
2022-10-17T05:49:52.519Z,14.73
2022-10-17T05:52:47.333Z,14.80
2022-10-17T05:55:36.925Z,14.69
2022-10-17T05:58:45.490Z,14.67
2022-10-17T06:01:41.971Z,14.62
2022-10-17T06:04:29.724Z,14.68
2022-10-17T06:07:18.685Z,14.76
2022-10-17T06:10:07.718Z,14.79
2022-10-17T06:12:56.684Z,14.88
2022-10-17T06:15:45.315Z,14.75
2022-10-17T06:18:32.181Z,14.69
2022-10-17T06:21:23.512Z,14.70
2022-10-17T06:24:13.876Z,14.72
2022-10-17T06:27:02.751Z,14.80
2022-10-17T06:29:51.385Z,14.77
2022-10-17T06:32:38.700Z,14.80
2022-10-17T06:35:26.890Z,14.87
2022-10-17T06:38:14.120Z,14.98
2022-10-17T06:41:08.842Z,15.07
2022-10-17T06:43:56.254Z,15.12
2022-10-17T06:47:02.866Z,15.13
2022-10-17T06:49:50.164Z,15.20
2022-10-17T06:53:03.855Z,15.33
2022-10-17T06:56:11.583Z,15.53
2022-10-17T06:59:19.273Z,15.73
2022-10-17T07:02:15.199Z,15.78
2022-10-17T07:05:04.023Z,15.89
2022-10-17T07:07:52.049Z,16.00
2022-10-17T07:10:39.726Z,16.03
2022-10-17T07:13:29.796Z,15.95
2022-10-17T07:16:17.889Z,15.92
2022-10-17T07:19:09.173Z,15.88
2022-10-17T07:21:58.716Z,15.83
2022-10-17T07:24:46.643Z,15.68
2022-10-17T07:27:57.990Z,15.80
2022-10-17T07:30:50.678Z,15.90
2022-10-17T07:33:41.764Z,15.91
2022-10-17T07:36:30.135Z,16.05
2022-10-17T07:39:18.500Z,16.14
2022-10-17T07:42:07.649Z,16.19
2022-10-17T07:44:56.505Z,16.29
2022-10-17T07:47:47.963Z,16.39
2022-10-17T07:50:36.237Z,16.53
2022-10-17T07:53:24.043Z,16.63
2022-10-17T07:56:11.537Z,16.72
2022-10-17T07:59:00.831Z,16.73
2022-10-17T08:01:50.829Z,16.77
2022-10-17T08:04:40.016Z,16.85
2022-10-17T08:07:29.427Z,16.95
2022-10-17T08:10:17.967Z,16.94
2022-10-17T08:13:05.226Z,17.08
2022-10-17T08:15:52.798Z,17.10
2022-10-17T08:18:41.388Z,17.09
2022-10-17T08:21:31.346Z,17.10
2022-10-17T08:24:18.547Z,17.12
2022-10-17T08:27:11.715Z,17.12
2022-10-17T08:29:59.060Z,17.10
2022-10-17T08:32:46.333Z,17.22
2022-10-17T08:35:34.041Z,17.26
2022-10-17T08:38:26.189Z,17.27
2022-10-17T08:41:32.077Z,17.32
2022-10-17T08:44:30.402Z,17.39
2022-10-17T08:47:23.837Z,17.45
2022-10-17T08:50:18.469Z,17.53
2022-10-17T08:53:14.067Z,17.74
2022-10-17T08:56:19.477Z,17.94
2022-10-17T08:59:13.851Z,18.07
2022-10-17T09:02:13.984Z,18.31
2022-10-17T09:05:17.122Z,18.46
2022-10-17T09:08:19.912Z,18.52
2022-10-17T09:11:17.494Z,18.42
2022-10-17T09:14:15.606Z,18.24
2022-10-17T09:17:17.110Z,18.24
2022-10-17T09:20:11.209Z,18.33
2022-10-17T09:23:02.493Z,18.43
2022-10-17T09:25:54.173Z,18.53
2022-10-17T09:28:44.209Z,18.62
2022-10-17T09:31:41.011Z,18.86
2022-10-17T09:34:30.364Z,19.14
2022-10-17T09:37:19.199Z,19.23
2022-10-17T09:40:10.076Z,19.45
2022-10-17T09:42:57.433Z,19.76
2022-10-17T09:45:55.822Z,19.83
2022-10-17T09:48:49.814Z,20.03
2022-10-17T09:51:40.804Z,20.05
2022-10-17T09:54:41.104Z,20.13
2022-10-17T09:57:28.713Z,20.15
2022-10-17T10:00:23.354Z,20.36
2022-10-17T10:03:16.900Z,20.49
2022-10-17T10:06:06.590Z,20.65
2022-10-17T10:08:56.107Z,20.91
2022-10-17T10:11:50.065Z,21.12
2022-10-17T10:14:39.956Z,21.34
2022-10-17T10:17:39.804Z,21.65
2022-10-17T10:20:31.854Z,21.80
2022-10-17T10:23:22.208Z,22.08
2022-10-17T10:26:34.076Z,22.24
2022-10-17T10:29:26.855Z,22.42
2022-10-17T10:32:21.568Z,22.58
2022-10-17T10:35:20.327Z,22.60
2022-10-17T10:38:16.957Z,22.66
2022-10-17T10:41:07.423Z,22.93
2022-10-17T10:43:57.327Z,22.88
2022-10-17T10:46:45.431Z,22.98
2022-10-17T10:49:33.983Z,22.94
2022-10-17T10:52:30.906Z,22.98
2022-10-17T10:55:25.844Z,22.89
2022-10-17T10:58:25.524Z,22.64
2022-10-17T11:01:21.531Z,22.71
2022-10-17T11:04:22.820Z,22.57
2022-10-17T11:07:15.696Z,22.74
2022-10-17T11:10:13.546Z,22.69
2022-10-17T11:13:06.966Z,22.56
2022-10-17T11:16:00.409Z,22.39
2022-10-17T11:18:52.472Z,22.31
2022-10-17T11:21:46.574Z,22.29
2022-10-17T11:24:39.509Z,22.25
2022-10-17T11:27:29.117Z,22.07
2022-10-17T11:30:18.665Z,21.97
2022-10-17T11:33:07.136Z,21.90
2022-10-17T11:35:58.942Z,21.84
2022-10-17T11:38:50.027Z,21.80
2022-10-17T11:41:43.403Z,21.70
2022-10-17T11:44:36.279Z,21.58
2022-10-17T11:47:33.841Z,21.58
2022-10-17T11:53:46.256Z,21.50
2022-10-17T11:56:42.758Z,21.50
2022-10-17T11:59:50.265Z,21.46
2022-10-17T12:02:47.537Z,21.52
2022-10-17T12:05:41.488Z,21.57
2022-10-17T12:08:37.923Z,21.51
2022-10-17T12:11:35.706Z,21.61
2022-10-17T12:14:38.996Z,21.52
2022-10-17T12:17:33.186Z,21.44
2022-10-17T12:20:31.788Z,21.37
2022-10-17T12:23:30.061Z,21.24
2022-10-17T12:26:27.427Z,21.11
2022-10-17T12:29:28.606Z,21.03
2022-10-17T12:32:17.042Z,21.00
2022-10-17T12:35:04.877Z,21.03
2022-10-17T12:38:26.375Z,21.16
2022-10-17T12:41:13.710Z,21.13
2022-10-17T12:44:01.563Z,21.16
2022-10-17T12:46:52.103Z,21.07
2022-10-17T12:49:42.160Z,21.04
2022-10-17T12:52:59.777Z,20.97
2022-10-17T12:55:51.992Z,21.06
2022-10-17T12:58:46.219Z,20.98
2022-10-17T13:01:38.589Z,20.83
2022-10-17T13:04:27.921Z,20.79
2022-10-17T13:07:20.768Z,20.84
2022-10-17T13:10:20.425Z,20.77
2022-10-17T13:13:17.275Z,20.70
2022-10-17T13:16:05.328Z,20.65
2022-10-17T13:18:53.976Z,20.64
2022-10-17T13:21:51.301Z,20.66
2022-10-17T13:24:40.738Z,20.65
2022-10-17T13:27:30.811Z,20.71
2022-10-17T13:30:30.904Z,20.62
2022-10-17T13:33:33.502Z,20.62
2022-10-17T13:36:21.357Z,20.61
2022-10-17T13:39:12.442Z,20.63
2022-10-17T13:42:02.451Z,20.74
2022-10-17T13:44:50.106Z,20.76
2022-10-17T13:47:40.831Z,20.68
2022-10-17T13:50:51.161Z,20.68
2022-10-17T13:53:44.033Z,20.73
2022-10-17T13:56:32.338Z,20.72
2022-10-17T13:59:25.387Z,20.66
2022-10-17T14:02:17.018Z,20.73
2022-10-17T14:05:18.204Z,20.70
2022-10-17T14:08:18.018Z,20.67
2022-10-17T14:11:26.506Z,20.62
2022-10-17T14:14:20.649Z,20.55
2022-10-17T14:17:15.044Z,20.56
2022-10-17T14:23:44.666Z,20.40
2022-10-17T14:26:37.054Z,20.40
2022-10-17T14:29:26.901Z,20.35
2022-10-17T14:32:16.141Z,20.34
2022-10-17T14:35:41.116Z,20.34
2022-10-17T14:38:16.045Z,20.39
2022-10-17T14:41:37.827Z,20.35
2022-10-17T14:44:22.063Z,20.24
2022-10-17T14:47:42.325Z,20.19
2022-10-17T14:50:32.062Z,20.14
2022-10-17T14:53:23.200Z,20.10
2022-10-17T14:56:24.307Z,20.05
2022-10-17T14:59:21.388Z,20.01
2022-10-17T15:02:14.315Z,19.94
2022-10-17T15:05:01.718Z,19.93
2022-10-17T15:07:50.650Z,19.84
2022-10-17T15:10:41.858Z,19.80
2022-10-17T15:13:32.139Z,19.80
2022-10-17T15:16:25.063Z,19.87
2022-10-17T15:19:14.904Z,19.84
2022-10-17T15:22:02.497Z,19.79
2022-10-17T15:24:51.395Z,19.76
2022-10-17T15:27:39.278Z,19.75
2022-10-17T15:30:28.708Z,19.82
2022-10-17T15:33:16.093Z,19.73
2022-10-17T15:36:03.455Z,19.67
2022-10-17T15:38:50.565Z,19.61
2022-10-17T15:41:39.986Z,19.67
2022-10-17T15:44:27.220Z,19.68
2022-10-17T15:47:23.976Z,19.68
2022-10-17T15:50:15.934Z,19.70
2022-10-17T15:53:03.873Z,19.67
2022-10-17T15:55:52.095Z,19.66
2022-10-17T15:58:41.682Z,19.59
2022-10-17T16:01:31.956Z,19.52
2022-10-17T16:04:19.538Z,19.43
2022-10-17T16:07:07.321Z,19.41
2022-10-17T16:09:55.119Z,19.41
2022-10-17T16:12:43.541Z,19.49
2022-10-17T16:15:32.550Z,19.45
2022-10-17T16:18:21.225Z,19.54
2022-10-17T16:21:11.606Z,19.48
2022-10-17T16:24:00.569Z,19.45
2022-10-17T16:26:48.146Z,19.48
2022-10-17T16:29:35.350Z,19.45
2022-10-17T16:32:24.579Z,19.49
2022-10-17T16:35:17.750Z,19.46
2022-10-17T16:38:04.914Z,19.33
2022-10-17T16:40:53.066Z,19.32
2022-10-17T16:43:41.425Z,19.34
2022-10-17T16:46:30.183Z,19.32
2022-10-17T16:49:19.127Z,19.26
2022-10-17T16:52:07.385Z,19.29
2022-10-17T16:54:55.057Z,19.13
2022-10-17T17:00:40.507Z,18.98
2022-10-17T17:03:28.147Z,18.88
2022-10-17T17:06:19.578Z,18.69
2022-10-17T17:09:07.120Z,18.60
2022-10-17T17:11:54.961Z,18.53
2022-10-17T17:14:42.624Z,18.53
2022-10-17T17:17:44.222Z,18.41
2022-10-17T17:20:36.624Z,18.34
2022-10-17T17:23:25.827Z,18.29
2022-10-17T17:26:15.626Z,18.28
2022-10-17T17:29:03.461Z,18.26
2022-10-17T17:31:52.046Z,18.21
2022-10-17T17:34:39.493Z,18.19
2022-10-17T17:37:28.538Z,18.19
2022-10-17T17:40:17.997Z,18.11
2022-10-17T17:43:05.431Z,18.07
2022-10-17T17:45:53.071Z,18.04
2022-10-17T17:48:42.715Z,17.97
2022-10-17T17:51:30.616Z,17.88
2022-10-17T17:54:18.425Z,17.81
2022-10-17T17:57:08.563Z,17.86
2022-10-17T17:59:56.317Z,17.83
2022-10-17T18:02:44.559Z,17.76
2022-10-17T18:05:32.426Z,17.73
2022-10-17T18:08:19.967Z,17.63
2022-10-17T18:11:07.839Z,17.61
2022-10-17T18:13:57.867Z,17.60
2022-10-17T18:16:45.611Z,17.65
2022-10-17T18:19:32.856Z,17.64
2022-10-17T18:22:20.426Z,17.64
2022-10-17T18:25:09.050Z,17.63
2022-10-17T18:27:56.757Z,17.59
2022-10-17T18:30:45.536Z,17.47
2022-10-17T18:33:32.948Z,17.43
2022-10-17T18:36:21.016Z,17.51
2022-10-17T18:39:08.317Z,17.44
2022-10-17T18:41:55.662Z,17.35
2022-10-17T18:44:43.875Z,17.32
2022-10-17T18:47:33.272Z,17.33
2022-10-17T18:50:21.198Z,17.31
2022-10-17T18:53:08.458Z,17.32
2022-10-17T18:55:56.587Z,17.31
2022-10-17T18:58:44.661Z,17.30
2022-10-17T19:01:32.811Z,17.27
2022-10-17T19:04:21.913Z,17.24
2022-10-17T19:07:09.695Z,17.18
2022-10-17T19:09:57.121Z,17.18
2022-10-17T19:12:44.690Z,17.06
2022-10-17T19:15:32.529Z,17.05
2022-10-17T19:18:19.912Z,17.02
2022-10-17T19:21:10.657Z,17.03
2022-10-17T19:24:00.373Z,17.03
2022-10-17T19:26:50.225Z,17.15
2022-10-17T19:29:37.698Z,16.95
2022-10-17T19:32:26.438Z,16.93
2022-10-17T19:35:14.019Z,16.82
2022-10-17T19:38:03.286Z,16.88
2022-10-17T19:40:50.973Z,16.90
2022-10-17T19:43:38.907Z,16.92
2022-10-17T19:46:29.478Z,16.92
2022-10-17T19:49:17.296Z,16.96
2022-10-17T19:52:05.323Z,16.90
2022-10-17T19:54:54.592Z,16.83
2022-10-17T19:57:41.887Z,16.83
2022-10-17T20:00:29.747Z,16.87
2022-10-17T20:03:17.105Z,16.95
2022-10-17T20:06:04.740Z,16.94
2022-10-17T20:08:52.849Z,16.87
2022-10-17T20:11:42.022Z,16.94
2022-10-17T20:14:29.655Z,16.99
2022-10-17T20:17:17.258Z,16.99
2022-10-17T20:20:08.602Z,17.00
2022-10-17T20:22:56.383Z,16.95
2022-10-17T20:25:44.496Z,16.93
2022-10-17T20:28:34.013Z,16.91
2022-10-17T20:31:22.568Z,16.88
2022-10-17T20:34:14.464Z,16.81
2022-10-17T20:37:02.555Z,16.77
2022-10-17T20:39:59.930Z,16.79
2022-10-17T20:42:57.628Z,16.77
2022-10-17T20:45:51.188Z,16.78
2022-10-17T20:48:39.717Z,16.81
2022-10-17T20:51:27.167Z,16.80
2022-10-17T20:54:14.859Z,16.80
2022-10-17T20:57:04.796Z,16.85
2022-10-17T20:59:52.608Z,16.81
2022-10-17T21:02:41.705Z,16.82
2022-10-17T21:05:29.262Z,16.83
2022-10-17T21:08:16.366Z,16.78
2022-10-17T21:11:11.864Z,16.74
2022-10-17T21:14:01.218Z,16.69
2022-10-17T21:16:49.406Z,16.70
2022-10-17T21:19:38.393Z,16.71
2022-10-17T21:22:26.062Z,16.79
2022-10-17T21:25:13.329Z,16.80
2022-10-17T21:28:00.719Z,16.70
2022-10-17T21:30:49.481Z,16.67
2022-10-17T21:33:36.887Z,16.60
2022-10-17T21:36:26.691Z,16.60
2022-10-17T21:39:15.549Z,16.56
2022-10-17T21:42:03.056Z,16.55
2022-10-17T21:44:50.012Z,16.45
2022-10-17T21:47:38.560Z,16.44
2022-10-17T21:50:26.139Z,16.40
2022-10-17T21:53:15.277Z,16.42
2022-10-17T21:56:03.987Z,16.39
2022-10-17T21:58:52.154Z,16.41
2022-10-17T22:01:41.757Z,16.45
2022-10-17T22:04:28.956Z,16.48
2022-10-17T22:07:16.716Z,16.45
2022-10-17T22:10:06.390Z,16.45
2022-10-17T22:12:53.910Z,16.43
2022-10-17T22:15:41.483Z,16.51
2022-10-17T22:18:28.743Z,16.51
2022-10-17T22:21:19.340Z,16.45
2022-10-17T22:24:12.005Z,16.37
2022-10-17T22:27:00.480Z,16.33
2022-10-17T22:29:48.008Z,16.35
2022-10-17T22:32:35.165Z,16.30
2022-10-17T22:35:22.351Z,16.34
2022-10-17T22:38:10.186Z,16.36
2022-10-17T22:40:57.162Z,16.30
2022-10-17T22:43:46.300Z,16.37
2022-10-17T22:46:33.961Z,16.41
2022-10-17T22:49:21.256Z,16.26
2022-10-17T22:52:08.762Z,16.22
2022-10-17T22:54:56.246Z,16.49
2022-10-17T22:57:43.928Z,16.39
2022-10-17T23:00:32.747Z,16.21
2022-10-17T23:03:21.836Z,16.10
2022-10-17T23:06:09.596Z,16.06
2022-10-17T23:08:56.829Z,16.08
2022-10-17T23:11:44.283Z,16.09
2022-10-17T23:14:31.686Z,15.99
2022-10-17T23:17:19.996Z,15.97
2022-10-17T23:20:08.792Z,15.99
2022-10-17T23:22:56.326Z,15.99
2022-10-17T23:25:44.029Z,15.91
2022-10-17T23:28:33.608Z,15.93
2022-10-17T23:31:23.055Z,16.03
2022-10-17T23:34:12.316Z,15.90
2022-10-17T23:36:59.477Z,15.98
2022-10-17T23:39:47.295Z,15.85
2022-10-17T23:42:34.782Z,15.79
2022-10-17T23:45:22.476Z,15.77
2022-10-17T23:48:09.691Z,15.79
2022-10-17T23:50:59.227Z,15.78
2022-10-17T23:53:46.762Z,15.80
2022-10-17T23:56:34.161Z,15.80
2022-10-17T23:59:21.725Z,15.77
